createdAt,value
2023-04-25T00:00:10.275Z,1.53
2023-04-25T00:02:37.282Z,1.40
2023-04-25T00:05:04.596Z,1.40
2023-04-25T00:07:32.148Z,1.30
2023-04-25T00:09:59.244Z,1.70
2023-04-25T00:12:25.793Z,1.50
2023-04-25T00:14:52.332Z,1.65
2023-04-25T00:17:20.260Z,1.58
2023-04-25T00:19:47.356Z,2.25
2023-04-25T00:22:14.350Z,1.23
2023-04-25T00:24:40.868Z,1.77
2023-04-25T00:27:07.383Z,1.35
2023-04-25T00:29:34.394Z,1.65
2023-04-25T00:32:01.533Z,1.88
2023-04-25T00:34:28.109Z,1.45
2023-04-25T00:36:54.702Z,1.80
2023-04-25T00:39:21.223Z,1.15
2023-04-25T00:41:48.138Z,1.50
2023-04-25T00:44:17.912Z,1.52
2023-04-25T00:46:44.823Z,1.67
2023-04-25T00:49:16.322Z,1.73
2023-04-25T00:51:45.002Z,1.77
2023-04-25T00:54:15.269Z,1.30
2023-04-25T00:56:42.415Z,1.80
2023-04-25T00:59:10.817Z,1.77
2023-04-25T01:01:38.765Z,1.87
2023-04-25T01:04:05.806Z,1.40
2023-04-25T01:06:32.968Z,1.33
2023-04-25T01:09:00.466Z,1.52
2023-04-25T01:11:26.972Z,1.90
2023-04-25T01:13:53.549Z,1.83
2023-04-25T01:16:20.137Z,1.02
2023-04-25T01:18:48.224Z,2.08
2023-04-25T01:21:14.746Z,1.10
2023-04-25T01:23:42.247Z,1.83
2023-04-25T01:26:10.878Z,1.90
2023-04-25T01:28:38.317Z,1.33
2023-04-25T01:31:06.787Z,1.17
2023-04-25T01:33:33.639Z,1.73
2023-04-25T01:36:00.228Z,1.98
2023-04-25T01:38:26.942Z,1.20
2023-04-25T01:40:54.730Z,2.08
2023-04-25T01:43:21.428Z,1.40
2023-04-25T01:45:50.055Z,1.50
2023-04-25T01:48:16.763Z,1.13
2023-04-25T01:50:44.915Z,1.13
2023-04-25T01:53:14.068Z,1.42
2023-04-25T01:55:40.640Z,1.40
2023-04-25T01:58:14.021Z,1.42
2023-04-25T02:00:41.798Z,1.80
2023-04-25T02:03:09.504Z,1.23
2023-04-25T02:05:40.215Z,1.98
2023-04-25T02:08:08.216Z,1.10
2023-04-25T02:10:35.503Z,1.02
2023-04-25T02:13:02.135Z,1.30
2023-04-25T02:15:28.685Z,1.17
2023-04-25T02:17:55.181Z,1.20
2023-04-25T02:20:24.102Z,1.02
2023-04-25T02:22:50.676Z,1.20
2023-04-25T02:25:18.070Z,2.15
2023-04-25T02:27:44.638Z,1.63
2023-04-25T02:30:11.629Z,1.40
2023-04-25T02:32:38.377Z,1.25
2023-04-25T02:35:05.414Z,1.27
2023-04-25T02:37:32.815Z,0.90
2023-04-25T02:39:59.348Z,1.23
2023-04-25T02:42:25.887Z,1.55
2023-04-25T02:44:52.346Z,1.27
2023-04-25T02:47:19.019Z,1.27
2023-04-25T02:49:47.009Z,1.38
2023-04-25T02:52:13.848Z,1.47
2023-04-25T02:54:41.620Z,1.17
2023-04-25T02:57:08.690Z,1.40
2023-04-25T02:59:35.486Z,1.42
2023-04-25T03:02:02.702Z,1.40
2023-04-25T03:04:29.234Z,1.40
2023-04-25T03:06:56.072Z,1.20
2023-04-25T03:09:22.759Z,1.38
2023-04-25T03:11:49.218Z,1.20
2023-04-25T03:14:16.171Z,1.13
2023-04-25T03:16:42.750Z,1.70
2023-04-25T03:19:09.364Z,1.40
2023-04-25T03:21:36.551Z,1.65
2023-04-25T03:24:05.349Z,1.30
2023-04-25T03:26:32.101Z,1.40
2023-04-25T03:28:58.592Z,1.67
2023-04-25T03:31:25.367Z,1.38
2023-04-25T03:33:52.035Z,1.70
2023-04-25T03:36:18.693Z,1.55
2023-04-25T03:38:45.223Z,1.27
2023-04-25T03:41:11.704Z,1.40
2023-04-25T03:43:38.172Z,1.23
2023-04-25T03:46:04.869Z,1.38
2023-04-25T03:48:31.412Z,1.45
2023-04-25T03:50:58.030Z,1.27
2023-04-25T03:53:24.532Z,1.20
2023-04-25T03:55:51.384Z,1.20
2023-04-25T03:58:17.905Z,1.42
2023-04-25T04:00:44.356Z,1.20
2023-04-25T04:03:12.114Z,1.10
2023-04-25T04:05:41.537Z,0.83
2023-04-25T04:08:08.273Z,0.95
2023-04-25T04:10:34.793Z,1.10
2023-04-25T04:13:01.228Z,1.10
2023-04-25T04:15:27.719Z,0.95
2023-04-25T04:17:55.142Z,1.03
2023-04-25T04:20:21.672Z,0.80
2023-04-25T04:22:48.136Z,0.88
2023-04-25T04:25:14.694Z,1.20
2023-04-25T04:27:41.597Z,1.13
2023-04-25T04:30:09.270Z,0.90
2023-04-25T04:32:38.566Z,1.00
2023-04-25T04:35:07.479Z,1.00
2023-04-25T04:37:34.543Z,1.13
2023-04-25T04:40:06.706Z,1.05
2023-04-25T04:42:33.281Z,0.70
2023-04-25T04:44:59.760Z,0.52
2023-04-25T04:47:26.922Z,0.88
2023-04-25T04:49:53.496Z,0.57
2023-04-25T04:52:19.955Z,1.08
2023-04-25T04:54:46.757Z,1.00
2023-04-25T04:57:13.282Z,0.60
2023-04-25T04:59:39.713Z,0.70
2023-04-25T05:02:06.231Z,0.80
2023-04-25T05:04:32.771Z,0.55
2023-04-25T05:06:59.498Z,0.73
2023-04-25T05:09:26.864Z,0.52
2023-04-25T05:11:53.379Z,0.60
2023-04-25T05:14:19.829Z,0.88
2023-04-25T05:16:46.346Z,1.02
2023-04-25T05:19:12.861Z,0.70
2023-04-25T05:21:39.290Z,0.55
2023-04-25T05:24:06.280Z,1.38
2023-04-25T05:26:32.772Z,1.05
2023-04-25T05:28:59.237Z,0.70
2023-04-25T05:31:25.713Z,0.90
2023-04-25T05:33:52.781Z,0.63
2023-04-25T05:36:20.608Z,0.60
2023-04-25T05:38:47.058Z,0.60
2023-04-25T05:41:13.581Z,0.60
2023-04-25T05:43:40.213Z,0.70
2023-04-25T05:46:06.869Z,1.10
2023-04-25T05:48:33.348Z,0.60
2023-04-25T05:50:59.821Z,0.43
2023-04-25T05:53:26.281Z,0.80
2023-04-25T05:55:52.757Z,0.70
2023-04-25T05:58:19.224Z,0.57
2023-04-25T06:00:45.782Z,0.50
2023-04-25T06:03:12.623Z,0.63
2023-04-25T06:05:39.305Z,0.70
2023-04-25T06:08:05.887Z,0.97
2023-04-25T06:10:32.328Z,0.88
2023-04-25T06:12:58.766Z,1.00
2023-04-25T06:15:28.585Z,0.50
2023-04-25T06:17:55.981Z,0.70
2023-04-25T06:20:24.960Z,0.60
2023-04-25T06:22:55.229Z,0.93
2023-04-25T06:25:22.059Z,0.73
2023-04-25T06:27:48.734Z,0.55
2023-04-25T06:30:16.236Z,0.40
2023-04-25T06:32:42.863Z,0.50
2023-04-25T06:35:09.846Z,0.57
2023-04-25T06:37:36.406Z,0.63
2023-04-25T06:40:03.466Z,0.68
2023-04-25T06:42:29.950Z,0.50
2023-04-25T06:44:56.847Z,0.87
2023-04-25T06:47:23.317Z,0.68
2023-04-25T06:49:50.359Z,0.95
2023-04-25T06:52:18.916Z,0.45
2023-04-25T06:54:46.104Z,0.88
2023-04-25T06:57:12.660Z,0.60
2023-04-25T06:59:39.120Z,0.60
2023-04-25T07:02:06.920Z,0.45
2023-04-25T07:04:33.614Z,0.47
2023-04-25T07:07:01.911Z,0.50
2023-04-25T07:09:28.473Z,0.97
2023-04-25T07:11:55.009Z,0.60
2023-04-25T07:14:21.521Z,0.60
2023-04-25T07:16:48.132Z,0.60
2023-04-25T07:19:14.719Z,0.60
2023-04-25T07:21:41.263Z,0.47
2023-04-25T07:24:07.847Z,0.50
2023-04-25T07:26:34.389Z,0.50
2023-04-25T07:29:00.870Z,0.65
2023-04-25T07:31:27.938Z,0.68
2023-04-25T07:33:54.610Z,0.63
2023-04-25T07:36:21.944Z,0.70
2023-04-25T07:38:48.626Z,0.35
2023-04-25T07:41:15.264Z,0.90
2023-04-25T07:43:41.728Z,0.60
2023-04-25T07:46:08.276Z,0.47
2023-04-25T07:48:34.904Z,0.43
2023-04-25T07:51:01.453Z,0.77
2023-04-25T07:53:27.964Z,0.45
2023-04-25T07:55:54.591Z,0.55
2023-04-25T07:58:23.652Z,0.73
2023-04-25T08:00:50.878Z,0.40
2023-04-25T08:03:17.553Z,0.40
2023-04-25T08:05:44.524Z,0.40
2023-04-25T08:08:11.465Z,0.75
2023-04-25T08:10:37.971Z,0.70
2023-04-25T08:13:04.458Z,0.50
2023-04-25T08:15:31.226Z,0.43
2023-04-25T08:17:57.728Z,0.80
2023-04-25T08:20:24.168Z,0.52
2023-04-25T08:22:50.673Z,0.50
2023-04-25T08:25:17.149Z,0.68
2023-04-25T08:27:44.298Z,0.30
2023-04-25T08:30:11.204Z,0.50
2023-04-25T08:32:40.827Z,0.40
2023-04-25T08:35:07.851Z,0.30
2023-04-25T08:37:34.426Z,0.20
2023-04-25T08:40:00.938Z,0.32
2023-04-25T08:42:29.870Z,0.30
2023-04-25T08:44:56.509Z,0.20
2023-04-25T08:47:24.894Z,0.43
2023-04-25T08:49:54.526Z,0.30
2023-04-25T08:52:25.583Z,0.73
2023-04-25T08:54:52.512Z,0.45
2023-04-25T08:57:19.347Z,0.60
2023-04-25T08:59:47.832Z,1.00
2023-04-25T09:02:16.815Z,0.40
2023-04-25T09:04:45.658Z,0.60
2023-04-25T09:07:12.502Z,0.40
2023-04-25T09:09:39.245Z,0.30
2023-04-25T09:12:06.276Z,0.50
2023-04-25T09:14:32.969Z,0.35
2023-04-25T09:17:01.619Z,0.40
2023-04-25T09:19:39.759Z,0.45
2023-04-25T09:22:08.191Z,0.55
2023-04-25T09:24:44.371Z,0.47
2023-04-25T09:27:12.826Z,0.50
2023-04-25T09:29:41.962Z,0.40
2023-04-25T09:32:23.369Z,0.70
2023-04-25T09:34:57.641Z,0.32
2023-04-25T09:37:29.724Z,0.50
2023-04-25T09:40:03.618Z,0.40
2023-04-25T09:42:32.421Z,0.47
2023-04-25T09:45:00.016Z,0.30
2023-04-25T09:47:27.783Z,0.70
2023-04-25T09:49:55.959Z,0.40
2023-04-25T09:52:25.785Z,0.38
2023-04-25T09:54:53.461Z,0.30
2023-04-25T09:57:26.857Z,0.73
2023-04-25T09:59:55.349Z,0.40
2023-04-25T10:02:27.110Z,0.30
2023-04-25T10:04:57.466Z,0.47
2023-04-25T10:07:29.559Z,0.50
2023-04-25T10:10:04.005Z,0.20
2023-04-25T10:12:34.986Z,0.32
2023-04-25T10:15:02.642Z,0.43
2023-04-25T10:17:29.522Z,0.68
2023-04-25T10:19:56.268Z,0.50
2023-04-25T10:22:45.088Z,0.30
2023-04-25T10:25:12.763Z,0.30
2023-04-25T10:27:40.561Z,0.30
2023-04-25T10:30:16.273Z,0.32
2023-04-25T10:32:44.078Z,1.10
2023-04-25T10:35:18.966Z,0.93
2023-04-25T10:38:06.036Z,0.30
2023-04-25T10:40:33.999Z,0.30
2023-04-25T10:43:38.493Z,0.40
2023-04-25T10:46:28.703Z,0.40
2023-04-25T10:49:00.329Z,0.52
2023-04-25T10:51:47.368Z,0.47
2023-04-25T10:54:21.203Z,0.30
2023-04-25T10:56:49.755Z,0.30
2023-04-25T10:59:18.016Z,0.60
2023-04-25T11:01:52.469Z,0.55
2023-04-25T11:04:26.810Z,0.40
2023-04-25T11:07:07.507Z,0.40
2023-04-25T11:09:41.158Z,0.75
2023-04-25T11:12:12.871Z,0.40
2023-04-25T11:17:07.491Z,0.45
2023-04-25T11:19:34.000Z,0.55
2023-04-25T11:22:01.593Z,0.30
2023-04-25T11:24:32.494Z,0.65
2023-04-25T11:26:59.965Z,0.30
2023-04-25T11:29:31.514Z,0.38
2023-04-25T11:31:59.073Z,0.40
2023-04-25T11:34:27.054Z,0.45
2023-04-25T11:36:54.310Z,0.32
2023-04-25T11:39:21.321Z,0.40
2023-04-25T11:41:48.343Z,0.43
2023-04-25T11:44:18.518Z,0.40
2023-04-25T11:46:45.759Z,0.50
2023-04-25T11:49:12.966Z,0.70
2023-04-25T11:51:47.551Z,0.20
2023-04-25T11:54:14.470Z,0.40
2023-04-25T11:56:45.809Z,0.40
2023-04-25T11:59:13.423Z,0.30
2023-04-25T12:01:42.029Z,0.60
2023-04-25T12:04:15.845Z,0.40
2023-04-25T12:06:44.059Z,0.50
2023-04-25T12:09:14.099Z,0.37
2023-04-25T12:11:44.914Z,0.60
2023-04-25T12:14:12.101Z,0.50
2023-04-25T12:16:46.317Z,0.30
2023-04-25T12:19:17.816Z,0.43
2023-04-25T12:21:57.283Z,0.30
2023-04-25T12:24:26.679Z,0.40
2023-04-25T12:27:00.799Z,0.77
2023-04-25T12:29:34.588Z,0.50
2023-04-25T12:32:05.430Z,0.43
2023-04-25T12:34:33.398Z,0.40
2023-04-25T12:36:59.916Z,0.32
2023-04-25T12:39:26.834Z,0.52
2023-04-25T12:41:54.933Z,0.32
2023-04-25T12:44:22.233Z,0.45
2023-04-25T12:46:49.544Z,0.50
2023-04-25T12:49:19.400Z,0.40
2023-04-25T12:51:46.275Z,0.40
2023-04-25T12:54:12.918Z,0.40
2023-04-25T12:56:39.687Z,0.38
2023-04-25T12:59:06.181Z,0.32
2023-04-25T13:01:34.717Z,0.30
2023-04-25T13:04:02.989Z,0.30
2023-04-25T13:06:31.380Z,0.45
2023-04-25T13:08:57.946Z,0.30
2023-04-25T13:11:24.414Z,0.30
2023-04-25T13:13:51.225Z,0.20
2023-04-25T13:16:18.569Z,0.30
2023-04-25T13:18:45.039Z,0.35
2023-04-25T13:21:14.528Z,0.43
2023-04-25T13:23:42.750Z,0.43
2023-04-25T13:26:09.536Z,0.90
2023-04-25T13:28:36.097Z,0.30
2023-04-25T13:31:02.622Z,0.60
2023-04-25T13:33:29.889Z,0.40
2023-04-25T13:35:58.068Z,0.35
2023-04-25T13:38:26.972Z,0.40
2023-04-25T13:40:54.325Z,0.55
2023-04-25T13:43:22.848Z,0.20
2023-04-25T13:45:50.322Z,0.40
2023-04-25T13:48:17.021Z,0.43
2023-04-25T13:50:43.501Z,0.40
2023-04-25T13:53:10.044Z,0.30
2023-04-25T13:55:37.869Z,0.60
2023-04-25T13:58:10.981Z,0.73
2023-04-25T14:00:39.969Z,0.40
2023-04-25T14:03:08.837Z,0.50
2023-04-25T14:05:39.094Z,0.40
2023-04-25T14:08:10.542Z,0.70
2023-04-25T14:10:38.048Z,0.47
2023-04-25T14:13:05.638Z,0.30
2023-04-25T14:15:35.632Z,0.43
2023-04-25T14:18:02.834Z,0.85
2023-04-25T14:20:29.828Z,0.50
2023-04-25T14:22:57.097Z,0.50
2023-04-25T14:25:24.493Z,0.60
2023-04-25T14:27:51.325Z,0.50
2023-04-25T14:30:19.266Z,0.30
2023-04-25T14:32:46.409Z,0.40
2023-04-25T14:35:13.690Z,0.40
2023-04-25T14:37:40.478Z,0.50
2023-04-25T14:40:11.239Z,0.50
2023-04-25T14:42:38.066Z,0.50
2023-04-25T14:45:08.218Z,0.47
2023-04-25T14:47:35.262Z,0.65
2023-04-25T14:50:02.713Z,0.40
2023-04-25T14:52:29.442Z,0.57
2023-04-25T14:54:56.003Z,0.43
2023-04-25T14:57:22.631Z,0.40
2023-04-25T14:59:49.103Z,0.60
2023-04-25T15:02:15.664Z,0.32
2023-04-25T15:04:42.763Z,0.47
2023-04-25T15:07:09.676Z,0.70
2023-04-25T15:09:36.159Z,0.30
2023-04-25T15:12:03.124Z,0.50
2023-04-25T15:14:29.881Z,0.30
2023-04-25T15:16:56.631Z,0.77
2023-04-25T15:19:23.303Z,0.50
2023-04-25T15:21:50.035Z,0.52
2023-04-25T15:24:17.184Z,0.80
2023-04-25T15:26:43.777Z,0.60
2023-04-25T15:29:10.680Z,0.50
2023-04-25T15:31:37.238Z,0.40
2023-04-25T15:34:03.860Z,0.57
2023-04-25T15:36:32.180Z,0.75
2023-04-25T15:38:58.628Z,0.50
2023-04-25T15:41:26.374Z,0.60
2023-04-25T15:43:53.646Z,0.50
2023-04-25T15:46:21.070Z,0.45
2023-04-25T15:48:47.817Z,0.47
2023-04-25T15:51:15.819Z,0.45
2023-04-25T15:53:42.314Z,0.50
2023-04-25T15:56:08.872Z,0.47
2023-04-25T15:58:36.221Z,0.40
2023-04-25T16:01:05.092Z,0.50
2023-04-25T16:03:35.443Z,0.70
2023-04-25T16:06:03.147Z,0.50
2023-04-25T16:08:29.960Z,0.50
2023-04-25T16:10:57.339Z,0.77
2023-04-25T16:13:23.879Z,0.38
2023-04-25T16:15:50.547Z,0.30
2023-04-25T16:18:17.292Z,0.40
2023-04-25T16:20:44.528Z,0.60
2023-04-25T16:23:10.947Z,0.50
2023-04-25T16:25:37.390Z,0.45
2023-04-25T16:28:03.878Z,0.55
2023-04-25T16:30:30.520Z,0.50
2023-04-25T16:32:57.712Z,0.50
2023-04-25T16:35:24.671Z,0.52
2023-04-25T16:37:51.218Z,0.50
2023-04-25T16:40:17.753Z,0.50
2023-04-25T16:42:44.233Z,0.40
2023-04-25T16:45:11.472Z,0.50
2023-04-25T16:47:38.013Z,0.55
2023-04-25T16:50:05.063Z,0.50
2023-04-25T16:52:31.690Z,0.40
2023-04-25T16:54:58.149Z,0.70
2023-04-25T16:57:24.581Z,0.60
2023-04-25T16:59:52.046Z,0.57
2023-04-25T17:02:18.645Z,0.40
2023-04-25T17:04:45.238Z,0.50
2023-04-25T17:07:11.734Z,0.50
2023-04-25T17:09:38.939Z,0.35
2023-04-25T17:12:05.906Z,0.50
2023-04-25T17:14:35.324Z,0.50
2023-04-25T17:17:01.943Z,0.50
2023-04-25T17:19:28.944Z,0.40
2023-04-25T17:21:55.841Z,0.70
2023-04-25T17:24:22.381Z,0.43
2023-04-25T17:26:49.072Z,0.32
2023-04-25T17:29:15.836Z,0.32
2023-04-25T17:31:42.692Z,0.60
2023-04-25T17:34:09.884Z,0.68
2023-04-25T17:36:36.472Z,0.65
2023-04-25T17:39:06.348Z,1.02
2023-04-25T17:41:33.020Z,0.60
2023-04-25T17:43:59.640Z,0.65
2023-04-25T17:46:27.453Z,0.60
2023-04-25T17:48:54.391Z,0.65
2023-04-25T17:51:21.239Z,0.50
2023-04-25T17:53:48.020Z,0.53
2023-04-25T17:56:25.954Z,0.52
2023-04-25T17:58:54.200Z,0.60
2023-04-25T18:01:21.385Z,0.50
2023-04-25T18:03:49.870Z,0.73
2023-04-25T18:06:16.911Z,0.60
2023-04-25T18:08:44.675Z,0.63
2023-04-25T18:11:11.936Z,0.50
2023-04-25T18:13:39.093Z,0.65
2023-04-25T18:16:06.127Z,0.77
2023-04-25T18:18:34.600Z,0.90
2023-04-25T18:21:03.921Z,1.00
2023-04-25T18:23:32.464Z,1.40
2023-04-25T18:25:58.933Z,0.52
2023-04-25T18:28:25.702Z,0.73
2023-04-25T18:30:52.183Z,0.70
2023-04-25T18:33:18.682Z,1.02
2023-04-25T18:35:55.535Z,1.08
2023-04-25T18:38:35.486Z,0.75
2023-04-25T18:43:44.374Z,0.67
2023-04-25T18:46:11.049Z,0.65
2023-04-25T18:48:37.964Z,0.77
2023-04-25T18:51:05.592Z,0.70
2023-04-25T18:53:32.407Z,1.40
2023-04-25T18:55:58.882Z,1.10
2023-04-25T18:58:25.909Z,0.90
2023-04-25T19:00:52.757Z,0.90
2023-04-25T19:03:19.492Z,1.17
2023-04-25T19:05:46.115Z,0.90
2023-04-25T19:08:12.594Z,1.10
2023-04-25T19:10:39.156Z,1.02
2023-04-25T19:13:06.474Z,1.00
2023-04-25T19:15:33.505Z,1.00
2023-04-25T19:18:00.106Z,0.80
2023-04-25T19:20:27.449Z,0.70
2023-04-25T19:22:54.600Z,1.05
2023-04-25T19:25:21.120Z,1.20
2023-04-25T19:27:47.665Z,1.00
2023-04-25T19:30:14.558Z,1.35
2023-04-25T19:32:41.153Z,1.10
2023-04-25T19:35:11.346Z,1.70
2023-04-25T19:37:39.073Z,1.13
2023-04-25T19:40:07.398Z,0.90
2023-04-25T19:42:33.938Z,0.95
2023-04-25T19:45:00.428Z,1.43
2023-04-25T19:47:28.007Z,1.38
2023-04-25T19:49:54.548Z,1.15
2023-04-25T19:52:21.079Z,1.60
2023-04-25T19:54:47.552Z,1.80
2023-04-25T19:57:14.122Z,1.70
2023-04-25T19:59:40.747Z,1.98
2023-04-25T20:02:10.612Z,2.10
2023-04-25T20:04:38.616Z,1.48
2023-04-25T20:07:05.162Z,1.80
2023-04-25T20:09:31.953Z,1.30
2023-04-25T20:11:58.437Z,1.42
2023-04-25T20:14:25.120Z,1.65
2023-04-25T20:16:51.634Z,1.85
2023-04-25T20:19:18.141Z,2.15
2023-04-25T20:21:44.628Z,1.10
2023-04-25T20:24:11.908Z,1.50
2023-04-25T20:26:38.581Z,1.33
2023-04-25T20:29:06.049Z,1.50
2023-04-25T20:31:34.288Z,2.10
2023-04-25T20:34:00.908Z,1.30
2023-04-25T20:36:27.516Z,1.38
2023-04-25T20:38:54.699Z,1.30
2023-04-25T20:41:21.455Z,1.48
2023-04-25T20:43:48.183Z,1.55
2023-04-25T20:46:16.152Z,1.20
2023-04-25T20:48:42.715Z,1.48
2023-04-25T20:51:09.227Z,1.50
2023-04-25T20:53:35.745Z,1.65
2023-04-25T20:56:02.695Z,1.73
2023-04-25T20:58:29.171Z,1.10
2023-04-25T21:00:56.526Z,1.48
2023-04-25T21:03:23.147Z,1.27
2023-04-25T21:05:49.768Z,1.95
2023-04-25T21:08:16.708Z,1.30
2023-04-25T21:10:43.238Z,1.57
2023-04-25T21:13:09.721Z,1.35
2023-04-25T21:15:36.216Z,1.30
2023-04-25T21:18:02.774Z,1.40
2023-04-25T21:20:29.365Z,1.30
2023-04-25T21:22:55.847Z,1.30
2023-04-25T21:25:31.641Z,1.23
2023-04-25T21:27:59.124Z,1.17
2023-04-25T21:30:26.515Z,1.35
2023-04-25T21:32:53.521Z,1.40
2023-04-25T21:35:21.901Z,1.20
2023-04-25T21:37:48.653Z,1.23
2023-04-25T21:40:15.447Z,1.00
2023-04-25T21:42:42.664Z,1.45
2023-04-25T21:45:10.036Z,1.42
2023-04-25T21:47:36.885Z,1.17
2023-04-25T21:50:04.333Z,1.10
2023-04-25T21:52:31.764Z,1.50
2023-04-25T21:54:58.230Z,1.45
2023-04-25T21:57:24.790Z,1.35
2023-04-25T21:59:51.236Z,1.83
2023-04-25T22:02:17.861Z,1.05
2023-04-25T22:04:47.150Z,1.60
2023-04-25T22:07:14.539Z,2.38
2023-04-25T22:09:53.760Z,1.60
2023-04-25T22:12:22.864Z,1.50
2023-04-25T22:14:50.201Z,1.35
2023-04-25T22:17:17.585Z,1.38
2023-04-25T22:19:44.606Z,1.30
2023-04-25T22:22:11.432Z,1.58
2023-04-25T22:24:38.773Z,1.30
2023-04-25T22:27:05.329Z,1.50
2023-04-25T22:29:31.755Z,1.30
2023-04-25T22:31:58.482Z,1.40
2023-04-25T22:34:25.026Z,1.40
2023-04-25T22:36:51.490Z,1.63
2023-04-25T22:39:19.261Z,1.23
2023-04-25T22:41:46.381Z,1.65
2023-04-25T22:44:12.924Z,1.58
2023-04-25T22:46:39.535Z,1.70
2023-04-25T22:49:06.034Z,1.83
2023-04-25T22:51:33.184Z,1.55
2023-04-25T22:54:00.569Z,1.50
2023-04-25T22:56:30.343Z,1.77
2023-04-25T22:58:57.132Z,1.75
2023-04-25T23:01:24.981Z,1.60
2023-04-25T23:03:51.669Z,1.58
2023-04-25T23:06:18.857Z,1.90
2023-04-25T23:08:45.503Z,1.45
2023-04-25T23:11:12.468Z,1.60
2023-04-25T23:13:39.380Z,1.97
2023-04-25T23:16:10.735Z,1.90
2023-04-25T23:18:39.114Z,2.00
2023-04-25T23:21:09.276Z,2.05
2023-04-25T23:23:36.350Z,1.52
2023-04-25T23:26:10.593Z,1.80
2023-04-25T23:28:42.024Z,1.50
2023-04-25T23:31:09.811Z,1.60
2023-04-25T23:33:36.498Z,1.70
2023-04-25T23:36:03.673Z,1.92
2023-04-25T23:38:30.256Z,2.00
2023-04-25T23:40:56.805Z,1.65
2023-04-25T23:43:23.349Z,1.63
2023-04-25T23:45:50.018Z,2.05
2023-04-25T23:48:16.798Z,1.85
2023-04-25T23:50:43.242Z,1.30
2023-04-25T23:53:09.971Z,1.90
2023-04-25T23:55:36.682Z,1.63
2023-04-25T23:58:03.695Z,1.70
